LIPR/RMI METAR and TAF weather

Enter ICAO airport designator
Station Type Date Time Source
LIPR METAR 2019/04/20 22:50 UTC NOAA

LIPR 202250Z AUTO VRB02KT 9999 NCD 10/05 Q1024


Station Type Date Time Source
LIPR Decoded METAR 2019/04/20 22:50 UTC NOAA

Rimini, Italy (LIPR) 44-02N 012-37E 13M
Apr 20, 2019 - 06:50 PM EDT / 2019.04.20 2250 UTC
Wind: Variable at 2 MPH (2 KT):0
Visibility: greater than 7 mile(s):0
Temperature: 50 F (10 C)
Dew Point: 41 F (5 C)
Relative Humidity: 71%
Pressure (altimeter): 30.24 in. Hg (1024 hPa)
ob: LIPR 202250Z AUTO VRB02KT 9999 NCD 10/05 Q1024
cycle: 23

Station Type Date Time Source
LIPR TAF 2016/08/23 03:00 UTC NOAA

TAF LIPR 230200Z 2303/2312 04007KT CAVOK
BECMG 2308/2310 02010KT

Example: see airport list